Weather History for Kimball, NE

Change the Weather History Date:

Thursday, March 21, 2013

  Actual Average (KSNY) Record (KSNY)
Temperature  
Mean Temperature 38 °F 40 °F  
Max Temperature 52 °F 54 °F 71 °F (1975)
Min Temperature 25 °F 26 °F 0 °F (1983)
Degree Days  
Heating Degree Days 26 25  
Month to date heating degree days 569  
Since 1 July heating degree days 5151  
Cooling Degree Days 0 0  
Month to date cooling degree days 0  
Year to date cooling degree days 0  
Moisture  
Dew Point 26 °F    
Average Humidity 65    
Maximum Humidity 94    
Minimum Humidity 35    
Precipitation  
Precipitation 0.14 in 0.04 in 0.49 in (1973)
Month to date precipitation 0.64  
Year to date precipitation 1.16  
Sea Level Pressure  
Sea Level Pressure 29.64 in    
Wind  
Wind Speed 9 mph (SW)    
Max Wind Speed 28 mph    
Max Gust Speed 40 mph    
Visibility 10 miles    
Events Rain , Snow    
T = Trace of Precipitation, MM = Missing Value Source: NWS Daily Summary

Daily Weather History Graph

Daily Weather History Graph

Search for Another Location

Airport:

Trip Planner

Search our weather history database for the weather conditions in past years. The results will help you decide how hot, cold, wet, or windy it might be!

Date:

Astronomy

Mar. 21, 2013 Rise Set
Actual Time 7:55 AM CDT 8:08 PM CDT
Civil Twilight 7:28 AM CDT 8:35 PM CDT
Nautical Twilight 6:56 AM CDT 9:08 PM CDT
Astronomical Twilight 6:23 AM CDT 9:41 PM CDT
Moon 2:37 PM CDT (3/21) 4:22 AM CDT (3/21)
Length of Visible Light 13h 07m
Length of Day
12h 12m
Waxing Gibbous, 69% of the Moon is Illuminated
Mar 21
Waxing Gibbous
Mar 27
Full
Apr 2
Last Quarter
Apr 10
New
Apr 18
First Quarter

Hourly Weather History & Observations

Time (CDT) Temp. Windchill Dew Point Humidity Pressure Visibility Wind Dir Wind Speed Gust Speed Precip Events Conditions
12:15 AM 41.5 °F 37.1 °F 16.7 °F 37% 29.72 in 10.0 mi South 6.9 mph - N/A   Overcast
12:35 AM 42.3 °F 36.3 °F 16.5 °F 35% 29.72 in 10.0 mi South 10.4 mph - N/A   Overcast
12:55 AM 40.1 °F 36.9 °F 16.7 °F 39% 29.71 in 10.0 mi South 4.6 mph - N/A   Mostly Cloudy
1:15 AM 39.4 °F 34.5 °F 17.1 °F 41% 29.70 in 10.0 mi South 6.9 mph - N/A   Mostly Cloudy
1:35 AM 39.2 °F 33.6 °F 17.4 °F 41% 29.70 in 10.0 mi SSW 8.1 mph - N/A   Mostly Cloudy
1:55 AM 37.2 °F 31.9 °F 17.2 °F 44% 29.69 in 10.0 mi SSE 6.9 mph - N/A   Scattered Clouds
2:15 AM 35.6 °F 29.2 °F 17.4 °F 48% 29.68 in 10.0 mi SSW 8.1 mph - N/A   Clear
2:35 AM 34.9 °F 30.8 °F 17.4 °F 49% 29.68 in 10.0 mi South 4.6 mph - N/A   Clear
2:55 AM 33.1 °F 28.7 °F 17.6 °F 53% 29.68 in 10.0 mi South 4.6 mph - N/A   Clear
3:15 AM 32.0 °F 26.4 °F 17.8 °F 56% 29.68 in 10.0 mi South 5.8 mph - N/A   Clear
3:35 AM 30.9 °F 26.2 °F 17.2 °F 57% 29.66 in 10.0 mi SSW 4.6 mph - N/A   Clear
3:55 AM 31.3 °F 27.9 °F 18.0 °F 58% 29.66 in 10.0 mi South 3.5 mph - N/A   Clear
4:15 AM 31.5 °F 26.8 °F 18.5 °F 59% 29.65 in 10.0 mi SSW 4.6 mph - N/A   Clear
4:35 AM 29.5 °F - 17.2 °F 60% 29.64 in 10.0 mi Calm Calm - N/A   Clear
4:55 AM 29.8 °F - 18.3 °F 62% 29.64 in 10.0 mi Calm Calm - N/A   Clear
5:15 AM 28.8 °F 25.0 °F 18.5 °F 66% 29.62 in 10.0 mi SSW 3.5 mph - N/A   Clear
5:35 AM 27.7 °F 23.8 °F 18.3 °F 68% 29.62 in 10.0 mi SW 3.5 mph - N/A   Clear
5:55 AM 27.5 °F 23.6 °F 17.8 °F 67% 29.62 in 10.0 mi SE 3.5 mph - N/A   Clear
6:15 AM 28.6 °F 23.5 °F 18.7 °F 66% 29.62 in 10.0 mi South 4.6 mph - N/A   Clear
6:35 AM 26.2 °F 19.6 °F 18.0 °F 71% 29.61 in 10.0 mi SSE 5.8 mph - N/A   Clear
6:55 AM 26.2 °F 19.6 °F 18.9 °F 74% 29.61 in 10.0 mi South 5.8 mph - N/A   Clear
7:15 AM 27.0 °F 21.6 °F 18.3 °F 70% 29.61 in 10.0 mi South 4.6 mph - N/A   Clear
7:55 AM 25.3 °F 21.1 °F 18.5 °F 75% 29.61 in 10.0 mi South 3.5 mph - N/A   Clear
8:15 AM 25.7 °F 21.5 °F 19.4 °F 77% 29.60 in 10.0 mi SSW 3.5 mph - N/A   Scattered Clouds
8:35 AM 32.0 °F 23.6 °F 22.5 °F 68% 29.60 in 10.0 mi SSW 10.4 mph - N/A   Mostly Cloudy
8:55 AM 34.9 °F 28.3 °F 22.8 °F 61% 29.59 in 10.0 mi South 8.1 mph - N/A   Overcast
9:15 AM 37.8 °F 30.7 °F 23.2 °F 56% 29.59 in 10.0 mi South 10.4 mph - N/A   Mostly Cloudy
9:35 AM 38.3 °F 31.9 °F 23.7 °F 56% 29.58 in 10.0 mi South 9.2 mph - N/A   Scattered Clouds
9:55 AM 38.8 °F 32.6 °F 23.9 °F 55% 29.58 in 10.0 mi South 9.2 mph - N/A   Mostly Cloudy
10:15 AM 38.7 °F 31.8 °F 23.5 °F 55% 29.57 in 10.0 mi South 10.4 mph - N/A   Mostly Cloudy
10:35 AM 38.5 °F 32.1 °F 23.9 °F 56% 29.58 in 10.0 mi SSE 9.2 mph - N/A   Scattered Clouds
10:55 AM 38.5 °F 31.6 °F 23.7 °F 55% 29.57 in 10.0 mi South 10.4 mph - N/A   Scattered Clouds
11:15 AM 40.3 °F 34.9 °F 23.5 °F 51% 29.57 in 10.0 mi South 8.1 mph - N/A   Mostly Cloudy
11:35 AM 42.4 °F 37.5 °F 23.0 °F 46% 29.57 in 10.0 mi South 8.1 mph - N/A   Overcast
11:55 AM 46.2 °F 40.1 °F 31.6 °F 57% 29.56 in 10.0 mi SW 13.8 mph - N/A   Overcast
12:15 PM 48.4 °F - 32.5 °F 54% 29.56 in 10.0 mi SW 16.1 mph 24.2 mph N/A   Overcast
12:35 PM 49.1 °F - 32.0 °F 52% 29.55 in 10.0 mi SSW 12.7 mph - N/A   Overcast
12:55 PM 49.3 °F - 32.7 °F 53% 29.55 in 10.0 mi South 12.7 mph - N/A   Overcast
1:15 PM 49.3 °F - 31.3 °F 50% 29.55 in 10.0 mi South 6.9 mph - N/A Rain Light Rain
1:35 PM 52.3 °F - 28.8 °F 40% 29.55 in 10.0 mi NW 10.4 mph - N/A   Overcast
1:55 PM 52.2 °F - 30.0 °F 43% 29.55 in 10.0 mi NNW 13.8 mph 20.7 mph N/A   Overcast
2:15 PM 51.1 °F - 32.2 °F 48% 29.56 in 10.0 mi NW 10.4 mph 20.7 mph N/A   Overcast
2:35 PM 43.2 °F 33.2 °F 34.5 °F 72% 29.60 in 5.0 mi WNW 27.6 mph 40.3 mph 0.01 in Rain Heavy Rain
2:55 PM 37.2 °F 27.3 °F 35.4 °F 93% 29.59 in 1.5 mi WNW 18.4 mph 27.6 mph 0.07 in Rain Rain
3:15 PM 38.7 °F 30.5 °F 36.5 °F 92% 29.59 in 3.0 mi West 13.8 mph - 0.04 in Rain Rain
3:35 PM 39.7 °F 33.7 °F 36.9 °F 89% 29.59 in 7.0 mi West 9.2 mph - 0.05 in Rain Light Rain
3:55 PM 40.6 °F - 36.5 °F 85% 29.57 in 10.0 mi Calm Calm - 0.06 in Rain Light Rain
4:15 PM 41.5 °F 35.9 °F 36.7 °F 83% 29.57 in 10.0 mi SSW 9.2 mph - N/A   Overcast
4:35 PM 42.1 °F 39.2 °F 35.6 °F 78% 29.57 in 10.0 mi West 4.6 mph - 0.01 in   Overcast
4:55 PM 44.8 °F 38.0 °F 33.1 °F 64% 29.57 in 10.0 mi West 15.0 mph 20.7 mph 0.01 in   Overcast
5:15 PM 45.7 °F 37.4 °F 29.8 °F 54% 29.58 in 10.0 mi WNW 23.0 mph 34.5 mph N/A   Overcast
5:35 PM 47.3 °F - 31.8 °F 55% 29.57 in 10.0 mi West 11.5 mph 15.0 mph N/A   Overcast
5:55 PM 46.0 °F 37.2 °F 36.3 °F 69% 29.59 in 10.0 mi NW 26.5 mph 35.7 mph N/A   Mostly Cloudy
6:15 PM 42.6 °F 33.8 °F 33.8 °F 71% 29.60 in 10.0 mi NW 20.7 mph 31.1 mph N/A   Mostly Cloudy
6:35 PM 41.4 °F 33.0 °F 32.7 °F 71% 29.62 in 10.0 mi NW 17.3 mph 27.6 mph N/A   Overcast
6:55 PM 40.8 °F 31.4 °F 32.2 °F 71% 29.65 in 10.0 mi NW 20.7 mph 29.9 mph N/A   Overcast
7:15 PM 40.1 °F 31.0 °F 32.2 °F 73% 29.66 in 10.0 mi NW 18.4 mph 25.3 mph N/A   Overcast
7:35 PM 39.6 °F 29.7 °F 32.0 °F 74% 29.67 in 10.0 mi NNW 20.7 mph 24.2 mph N/A   Overcast
7:55 PM 38.7 °F 30.1 °F 30.2 °F 72% 29.68 in 10.0 mi NNW 15.0 mph 20.7 mph N/A   Scattered Clouds
8:15 PM 36.9 °F 27.1 °F 29.8 °F 76% 29.69 in 10.0 mi NNW 17.3 mph - N/A   Clear
8:35 PM 35.8 °F 26.9 °F 29.3 °F 77% 29.71 in 10.0 mi NNW 13.8 mph - N/A   Clear
8:55 PM 34.9 °F 26.2 °F 29.1 °F 79% 29.72 in 10.0 mi NNW 12.7 mph 19.6 mph N/A   Clear
9:15 PM 34.2 °F 25.2 °F 28.4 °F 79% 29.73 in 10.0 mi NNW 12.7 mph 18.4 mph N/A   Clear
9:35 PM 33.1 °F 23.9 °F 29.7 °F 87% 29.75 in 10.0 mi NNW 12.7 mph 16.1 mph N/A   Clear
9:55 PM 32.9 °F 22.4 °F 28.8 °F 85% 29.75 in 10.0 mi NNW 16.1 mph 21.9 mph N/A   Clear
10:15 PM 32.2 °F 23.2 °F 29.3 °F 89% 29.77 in 10.0 mi NW 11.5 mph - N/A Snow Light Snow
10:35 PM 32.0 °F 22.5 °F 30.4 °F 94% 29.78 in 5.0 mi NW 12.7 mph 18.4 mph N/A Snow Light Snow
10:55 PM 32.0 °F 23.0 °F 29.3 °F 90% 29.79 in 10.0 mi NW 11.5 mph - N/A   Scattered Clouds
11:15 PM 31.1 °F 21.4 °F 28.6 °F 90% 29.79 in 10.0 mi WNW 12.7 mph - N/A   Clear
11:35 PM 30.6 °F 20.2 °F 27.9 °F 90% 29.80 in 10.0 mi WNW 13.8 mph - N/A   Clear
11:55 PM 30.2 °F 18.9 °F 27.9 °F 91% 29.81 in 10.0 mi WNW 16.1 mph - N/A   Clear